Sherburn, Minnesota
Current Conditions -  °F | °C
As of 12:33 PM on Thursday 27 Nov 2014 (Local Time) from KMJQ Reporting Station
Clear Clear  
Wind Chill:   Ceiling: Unl
Heat Index:   Visibility: 10mi
Dew Point: -6°   Wind: 0mph
Humidity: 61%   Direction: NA
Pressure: 30.42"   Gusts: NA
Location:  43.65°N, 94.73°W
Report Text: KMJQ 271833Z AUTO 00000KT 10SM CLR M15/M21 A3042 RMK AO2
Loading
Personal Weather Stations






























Interactive Weather Map New forecast layout! Learn more

10-Day Weather Forecast

Advertisements
Track Severe Weather on mobile